createdAt,value
2022-12-22T00:01:57.048Z,98278.97
2022-12-22T00:12:17.214Z,98258.38
2022-12-22T00:22:43.698Z,98249.13
2022-12-22T00:33:03.570Z,98226.66
2022-12-22T00:43:23.368Z,98227.91
2022-12-22T00:53:43.300Z,98210.38
2022-12-22T01:04:03.277Z,98194.31
2022-12-22T01:14:27.664Z,98187.31
2022-12-22T01:24:47.785Z,98166.94
2022-12-22T01:35:07.710Z,98155.16
2022-12-22T01:45:36.796Z,98140.97
2022-12-22T01:55:57.175Z,98129.44
2022-12-22T02:06:35.709Z,98100.56
2022-12-22T02:17:02.375Z,98086.59
2022-12-22T02:27:22.168Z,98071.31
2022-12-22T02:37:48.280Z,98051.75
2022-12-22T02:48:22.253Z,98035.09
2022-12-22T02:58:42.382Z,98026.81
2022-12-22T03:09:02.143Z,98016.94
2022-12-22T03:19:21.745Z,98003.75
2022-12-22T03:29:23.275Z,97983.34
2022-12-22T03:39:24.658Z,97962.97
2022-12-22T03:49:26.300Z,97948.75
2022-12-22T03:59:27.873Z,97937.25
2022-12-22T04:09:29.261Z,97935.59
2022-12-22T04:19:31.026Z,97922.41
2022-12-22T04:29:32.597Z,97885.38
2022-12-22T04:39:33.980Z,97881.06
2022-12-22T04:49:35.373Z,97880.03
2022-12-22T04:59:36.835Z,97855.31
2022-12-22T05:09:39.531Z,97850.19
2022-12-22T05:19:40.921Z,97842.53
2022-12-22T05:29:42.347Z,97843.03
2022-12-22T05:39:43.775Z,97834.44
2022-12-22T05:49:45.254Z,97836.31
2022-12-22T05:59:46.914Z,97832.94
2022-12-22T06:09:48.454Z,97818.94
2022-12-22T06:19:49.867Z,97843.22
2022-12-22T06:29:51.274Z,97845.75
2022-12-22T06:39:52.660Z,97855.69
2022-12-22T06:49:54.064Z,97869.03
2022-12-22T06:59:57.608Z,97882.19
2022-12-22T07:09:59.506Z,97898.22
2022-12-22T07:20:00.880Z,97910.75
2022-12-22T07:30:02.275Z,97926.44
2022-12-22T07:40:03.753Z,97949.22
2022-12-22T07:50:24.138Z,97964.28
2022-12-22T08:00:25.605Z,97993.38
2022-12-22T08:10:27.179Z,98007.97
2022-12-22T08:20:28.594Z,98014.53
2022-12-22T08:30:30.075Z,98035.34
2022-12-22T08:40:31.445Z,98052.66
2022-12-22T08:50:32.830Z,98101.97
2022-12-22T09:00:34.234Z,98118.88
2022-12-22T09:10:35.663Z,98115.59
2022-12-22T09:20:37.041Z,98131.88
2022-12-22T09:30:38.444Z,98175.81
2022-12-22T09:40:39.822Z,98216.25
2022-12-22T09:50:41.498Z,98244.53
2022-12-22T10:00:43.051Z,98247.47
2022-12-22T10:10:44.563Z,98251.44
2022-12-22T10:20:47.458Z,98252.59
2022-12-22T10:30:48.975Z,98263.72
2022-12-22T10:41:01.875Z,98280.25
2022-12-22T10:51:08.400Z,98297.97
2022-12-22T11:01:10.324Z,98320.09
2022-12-22T11:11:43.620Z,98336.16
2022-12-22T11:22:00.903Z,98346.66
2022-12-22T11:32:28.495Z,98369.63
2022-12-22T11:42:59.806Z,98384.28
2022-12-22T11:53:24.102Z,98378.47
2022-12-22T12:03:48.876Z,98399.06
2022-12-22T12:13:58.162Z,98413.13
2022-12-22T12:24:25.076Z,98421.25
2022-12-22T12:34:27.404Z,98428.66
2022-12-22T12:44:32.731Z,98423.06
2022-12-22T12:54:38.510Z,98419.09
2022-12-22T13:05:07.872Z,98431.03
2022-12-22T13:15:27.943Z,98420.28
2022-12-22T13:25:52.865Z,98427.97
2022-12-22T13:35:58.760Z,98428.94
2022-12-22T13:46:01.304Z,98430.53
2022-12-22T13:56:04.420Z,98462.44
2022-12-22T14:06:19.735Z,98462.50
2022-12-22T14:16:21.185Z,98454.47
2022-12-22T14:26:24.285Z,98457.69
2022-12-22T14:36:26.618Z,98466.59
2022-12-22T14:46:32.278Z,98456.97
2022-12-22T14:56:36.527Z,98441.91
2022-12-22T15:06:40.581Z,98433.91
2022-12-22T15:16:41.987Z,98429.19
2022-12-22T15:26:44.039Z,98409.63
2022-12-22T15:36:45.415Z,98389.59
2022-12-22T15:46:53.743Z,98370.44
2022-12-22T15:56:55.130Z,98376.47
2022-12-22T16:06:56.946Z,98368.25
2022-12-22T16:16:58.327Z,98353.84
2022-12-22T16:27:00.237Z,98342.72
2022-12-22T16:37:01.779Z,98330.75
2022-12-22T16:47:03.374Z,98303.91
2022-12-22T16:57:04.941Z,98308.91
2022-12-22T17:07:06.333Z,98313.91
2022-12-22T17:17:16.570Z,98302.16
2022-12-22T17:27:22.937Z,98282.78
2022-12-22T17:37:24.493Z,98265.91
2022-12-22T17:47:33.330Z,98254.56
2022-12-22T17:57:35.508Z,98244.25
2022-12-22T18:07:43.508Z,98230.03
2022-12-22T18:17:45.483Z,98221.38
2022-12-22T18:27:47.148Z,98209.22
2022-12-22T18:37:49.216Z,98204.91
2022-12-22T18:47:50.747Z,98179.13
2022-12-22T18:57:54.095Z,98172.34
2022-12-22T19:07:55.698Z,98166.38
2022-12-22T19:17:57.322Z,98163.06
2022-12-22T19:28:06.606Z,98165.38
2022-12-22T19:38:17.413Z,98148.47
2022-12-22T19:48:21.232Z,98135.72
2022-12-22T19:58:27.531Z,98143.97
2022-12-22T20:08:29.389Z,98141.53
2022-12-22T20:18:30.846Z,98124.03
2022-12-22T20:28:34.188Z,98129.38
2022-12-22T20:38:37.331Z,98130.03
2022-12-22T20:48:47.680Z,98123.84
2022-12-22T20:58:49.095Z,98131.69
2022-12-22T21:08:50.562Z,98140.97
2022-12-22T21:18:52.363Z,98133.75
2022-12-22T21:28:54.347Z,98135.03
2022-12-22T21:38:58.769Z,98118.69
2022-12-22T21:49:00.312Z,98117.91
2022-12-22T21:59:03.947Z,98127.19
2022-12-22T22:09:07.177Z,98129.06
2022-12-22T22:19:08.871Z,98115.41
2022-12-22T22:29:10.266Z,98123.47
2022-12-22T22:39:11.684Z,98117.28
2022-12-22T22:49:13.075Z,98121.00
2022-12-22T22:59:14.634Z,98125.53
2022-12-22T23:09:16.090Z,98121.00
2022-12-22T23:19:17.778Z,98119.34
2022-12-22T23:29:19.170Z,98103.28
2022-12-22T23:39:20.556Z,98093.81
2022-12-22T23:49:22.178Z,98098.16
2022-12-22T23:59:23.551Z,98102.91
